Time;durP1;ratioP1;P1;durP2;ratioP2;P2;SDS_P1;SDS_P2;PMS_P1;PMS_P2;Temp;Humidity;BMP_temperature;BMP_pressure;BME280_temperature;BME280_humidity;BME280_pressure;Samples;Min_cycle;Max_cycle;Signal;HPM_P1;HPM_P2
2021/08/16 00:02:23;;;;;;;5.20;4.70;;;;;;;;;;5079682;28;20213;-47
2021/08/16 00:04:50;;;;;;;5.32;4.50;;;;;;;;;;5075842;28;20198;-47
2021/08/16 00:07:17;;;;;;;5.35;4.68;;;;;;;;;;5087628;28;20174;-47
2021/08/16 00:09:43;;;;;;;7.35;4.80;;;;;;;;;;5096069;28;20166;-46
2021/08/16 00:12:09;;;;;;;5.18;4.68;;;;;;;;;;5078443;28;20491;-47
2021/08/16 00:14:35;;;;;;;6.25;4.60;;;;;;;;;;5084122;28;20187;-47
2021/08/16 00:17:02;;;;;;;5.95;4.80;;;;;;;;;;5086801;28;20190;-50
2021/08/16 00:19:28;;;;;;;5.78;4.45;;;;;;;;;;5075648;28;20163;-46
2021/08/16 00:21:54;;;;;;;5.45;4.68;;;;;;;;;;5084190;28;20465;-47
2021/08/16 00:24:20;;;;;;;6.18;4.57;;;;;;;;;;5095823;28;20193;-47
2021/08/16 00:26:47;;;;;;;4.72;4.22;;;;;;;;;;5095938;28;20180;-47
2021/08/16 00:29:13;;;;;;;6.97;5.03;;;;;;;;;;5094527;28;20580;-47
2021/08/16 00:31:39;;;;;;;5.90;4.65;;;;;;;;;;5083256;28;20240;-47
2021/08/16 00:34:05;;;;;;;5.47;4.55;;;;;;;;;;5076933;28;20450;-47
2021/08/16 00:36:31;;;;;;;4.85;4.35;;;;;;;;;;5081127;28;20174;-47
2021/08/16 00:38:57;;;;;;;5.47;4.82;;;;;;;;;;5095065;28;20169;-46
2021/08/16 00:41:23;;;;;;;5.03;4.47;;;;;;;;;;5090254;28;20205;-47
2021/08/16 00:43:50;;;;;;;4.90;4.40;;;;;;;;;;5074890;28;20253;-47
2021/08/16 00:46:16;;;;;;;4.45;4.05;;;;;;;;;;5082765;28;20205;-47
2021/08/16 00:48:42;;;;;;;5.70;4.43;;;;;;;;;;5078249;28;20181;-47
2021/08/16 00:51:10;;;;;;;5.15;4.13;;;;;;;;;;5077987;28;20433;-46
2021/08/16 00:53:36;;;;;;;5.15;4.70;;;;;;;;;;5094444;28;20170;-47
2021/08/16 00:56:02;;;;;;;5.35;4.60;;;;;;;;;;5095097;28;20170;-47
2021/08/16 00:58:28;;;;;;;4.90;4.40;;;;;;;;;;5094370;28;20170;-47
2021/08/16 01:00:58;;;;;;;5.88;4.40;;;;;;;;;;5088172;28;20620;-47
2021/08/16 01:03:27;;;;;;;4.45;4.07;;;;;;;;;;5080344;28;20194;-47
2021/08/16 01:05:56;;;;;;;5.65;3.92;;;;;;;;;;5075476;28;20228;-47
2021/08/16 01:08:22;;;;;;;4.65;4.25;;;;;;;;;;5094599;28;20191;-47
2021/08/16 01:10:55;;;;;;;8.10;4.53;;;;;;;;;;5093163;28;20530;-47
2021/08/16 01:13:22;;;;;;;6.10;4.63;;;;;;;;;;5093986;28;20561;-47
2021/08/16 01:16:01;;;;;;;4.72;4.30;;;;;;;;;;5079358;28;20196;-47
2021/08/16 01:18:29;;;;;;;5.32;4.22;;;;;;;;;;5079961;28;20228;-46
2021/08/16 01:20:55;;;;;;;4.82;4.22;;;;;;;;;;5075797;28;20194;-47
2021/08/16 01:23:24;;;;;;;4.88;4.18;;;;;;;;;;5086579;28;20566;-47
2021/08/16 01:25:50;;;;;;;5.60;4.18;;;;;;;;;;5074475;28;20643;-46
2021/08/16 01:28:17;;;;;;;5.43;4.72;;;;;;;;;;5074220;28;20167;-47
2021/08/16 01:30:43;;;;;;;5.50;4.65;;;;;;;;;;5078490;28;20181;-47
2021/08/16 01:33:09;;;;;;;5.47;4.82;;;;;;;;;;5081418;28;20178;-47
2021/08/16 01:35:35;;;;;;;5.18;4.70;;;;;;;;;;5074478;28;20170;-46
2021/08/16 01:38:01;;;;;;;4.82;4.30;;;;;;;;;;5092318;28;20830;-46
2021/08/16 01:40:27;;;;;;;5.45;4.72;;;;;;;;;;5094605;28;20174;-47
2021/08/16 01:42:53;;;;;;;4.82;4.30;;;;;;;;;;5081471;28;20550;-47
2021/08/16 01:45:19;;;;;;;5.57;4.97;;;;;;;;;;5058127;28;20209;-47
2021/08/16 01:47:45;;;;;;;4.72;4.32;;;;;;;;;;5085000;28;20171;-47
2021/08/16 01:50:11;;;;;;;4.50;4.10;;;;;;;;;;5074492;28;20606;-46
2021/08/16 01:52:37;;;;;;;6.03;5.00;;;;;;;;;;5074240;28;20182;-46
2021/08/16 01:55:05;;;;;;;5.13;4.68;;;;;;;;;;5076675;28;20271;-47
2021/08/16 01:57:31;;;;;;;4.68;4.20;;;;;;;;;;5093186;28;20272;-47
2021/08/16 01:59:57;;;;;;;6.13;4.75;;;;;;;;;;5093820;28;20253;-46
2021/08/16 02:02:23;;;;;;;7.57;4.32;;;;;;;;;;5085196;28;20198;-46
2021/08/16 02:04:49;;;;;;;6.57;4.10;;;;;;;;;;5074012;28;20501;-47
2021/08/16 02:07:15;;;;;;;6.15;4.40;;;;;;;;;;5073382;28;20276;-47
2021/08/16 02:09:41;;;;;;;6.07;4.50;;;;;;;;;;5088430;28;20192;-47
2021/08/16 02:12:08;;;;;;;5.50;4.88;;;;;;;;;;5085313;28;20181;-47
2021/08/16 02:14:34;;;;;;;5.20;4.70;;;;;;;;;;5095545;28;20207;-46
2021/08/16 02:17:00;;;;;;;5.38;4.88;;;;;;;;;;5084409;28;20264;-47
2021/08/16 02:19:26;;;;;;;5.47;4.63;;;;;;;;;;5077656;28;20539;-47
2021/08/16 02:21:52;;;;;;;4.88;4.47;;;;;;;;;;5086548;28;20184;-47
2021/08/16 02:24:18;;;;;;;5.38;4.57;;;;;;;;;;5097330;28;20933;-47
2021/08/16 02:26:44;;;;;;;6.72;4.28;;;;;;;;;;5097415;28;20531;-46
2021/08/16 02:29:11;;;;;;;5.22;4.60;;;;;;;;;;5097440;28;20166;-47
2021/08/16 02:31:38;;;;;;;4.78;4.38;;;;;;;;;;5093660;28;20186;-47
2021/08/16 02:34:05;;;;;;;4.63;4.18;;;;;;;;;;5077999;28;20434;-46
2021/08/16 02:36:31;;;;;;;4.68;4.25;;;;;;;;;;5077578;28;20232;-47
2021/08/16 02:38:57;;;;;;;4.50;4.10;;;;;;;;;;5080770;28;20193;-47
2021/08/16 02:41:23;;;;;;;5.65;4.40;;;;;;;;;;5091100;28;20202;-46
2021/08/16 02:43:49;;;;;;;6.93;4.57;;;;;;;;;;5077226;28;20170;-47
2021/08/16 02:46:15;;;;;;;4.47;4.07;;;;;;;;;;5085761;28;20205;-47
2021/08/16 02:48:41;;;;;;;6.35;4.63;;;;;;;;;;5079603;28;20477;-46
2021/08/16 02:51:07;;;;;;;4.75;4.35;;;;;;;;;;5079910;28;20174;-46
2021/08/16 02:53:33;;;;;;;6.45;4.70;;;;;;;;;;5091539;28;20170;-46
2021/08/16 02:55:59;;;;;;;5.07;4.07;;;;;;;;;;5077327;28;20189;-46
2021/08/16 02:58:25;;;;;;;5.05;4.63;;;;;;;;;;5076715;28;20554;-47
2021/08/16 03:00:51;;;;;;;4.60;4.20;;;;;;;;;;5080373;28;20513;-46
2021/08/16 03:03:17;;;;;;;4.75;4.28;;;;;;;;;;5089675;28;20216;-46
2021/08/16 03:05:43;;;;;;;5.75;4.75;;;;;;;;;;5097108;28;20224;-46
2021/08/16 03:08:10;;;;;;;5.00;4.57;;;;;;;;;;5076969;28;20178;-46
2021/08/16 03:10:36;;;;;;;4.93;4.35;;;;;;;;;;5077102;28;20170;-46
2021/08/16 03:13:02;;;;;;;7.57;4.25;;;;;;;;;;5083126;28;20204;-46
2021/08/16 03:15:28;;;;;;;5.75;4.38;;;;;;;;;;5092349;28;20179;-46
2021/08/16 03:17:55;;;;;;;4.63;4.22;;;;;;;;;;5086513;28;20179;-46
2021/08/16 03:20:21;;;;;;;7.30;4.93;;;;;;;;;;5076745;28;20170;-46
2021/08/16 03:22:47;;;;;;;4.43;4.03;;;;;;;;;;5092587;28;20265;-46
2021/08/16 03:25:14;;;;;;;4.72;4.30;;;;;;;;;;5096482;28;20186;-46
2021/08/16 03:27:40;;;;;;;5.45;4.90;;;;;;;;;;5095402;28;20174;-46
2021/08/16 03:30:06;;;;;;;4.50;4.05;;;;;;;;;;5095265;28;20178;-46
2021/08/16 03:32:32;;;;;;;5.07;4.57;;;;;;;;;;5085085;28;20201;-46
2021/08/16 03:34:58;;;;;;;8.57;5.30;;;;;;;;;;5096783;28;20227;-46
2021/08/16 03:37:24;;;;;;;5.20;4.70;;;;;;;;;;5094796;28;20189;-46
2021/08/16 03:39:51;;;;;;;5.85;4.65;;;;;;;;;;5095115;28;20264;-46
2021/08/16 03:42:17;;;;;;;4.72;4.25;;;;;;;;;;5085475;28;20182;-46
2021/08/16 03:44:43;;;;;;;4.55;4.15;;;;;;;;;;5091230;28;20444;-46
2021/08/16 03:47:09;;;;;;;5.32;4.55;;;;;;;;;;5082629;28;20252;-46
2021/08/16 03:49:35;;;;;;;5.32;4.35;;;;;;;;;;5095929;28;20232;-46
2021/08/16 03:52:01;;;;;;;5.03;4.53;;;;;;;;;;5086291;28;20201;-46
2021/08/16 03:54:27;;;;;;;4.40;3.95;;;;;;;;;;5096425;28;20178;-46
2021/08/16 03:56:53;;;;;;;4.82;4.30;;;;;;;;;;5095175;28;20185;-46
2021/08/16 03:59:19;;;;;;;4.47;4.07;;;;;;;;;;5077965;28;20227;-47
2021/08/16 04:01:45;;;;;;;5.82;4.40;;;;;;;;;;5086645;28;20201;-46
2021/08/16 04:04:11;;;;;;;5.63;4.13;;;;;;;;;;5085082;28;20196;-46
2021/08/16 04:06:37;;;;;;;5.55;4.40;;;;;;;;;;5088651;28;20214;-46
2021/08/16 04:09:03;;;;;;;5.22;4.28;;;;;;;;;;5075258;28;20441;-46
2021/08/16 04:11:29;;;;;;;4.82;4.00;;;;;;;;;;5080816;28;20181;-46
2021/08/16 04:13:55;;;;;;;4.72;4.30;;;;;;;;;;5083041;28;20189;-46
2021/08/16 04:16:21;;;;;;;4.90;4.40;;;;;;;;;;5084280;28;20182;-46
2021/08/16 04:18:47;;;;;;;5.90;5.05;;;;;;;;;;5078743;28;20183;-47
2021/08/16 04:21:13;;;;;;;5.22;4.75;;;;;;;;;;5078936;28;20256;-46
2021/08/16 04:23:39;;;;;;;4.50;4.10;;;;;;;;;;5095810;28;20549;-46
2021/08/16 04:26:05;;;;;;;6.28;4.78;;;;;;;;;;5095260;28;20190;-46
2021/08/16 04:28:31;;;;;;;5.32;4.82;;;;;;;;;;5077221;28;20173;-46
2021/08/16 04:30:57;;;;;;;4.88;4.38;;;;;;;;;;5089150;28;20899;-46
2021/08/16 04:33:26;;;;;;;5.32;4.82;;;;;;;;;;5082996;28;20178;-46
2021/08/16 04:35:53;;;;;;;5.20;4.50;;;;;;;;;;5075816;28;20170;-46
2021/08/16 04:38:20;;;;;;;4.85;4.40;;;;;;;;;;5094810;28;20165;-47
2021/08/16 04:40:48;;;;;;;6.07;4.60;;;;;;;;;;5094856;28;20181;-47
2021/08/16 04:43:13;;;;;;;5.03;4.53;;;;;;;;;;5094491;28;20190;-47
2021/08/16 04:45:39;;;;;;;5.28;4.78;;;;;;;;;;5090903;28;20536;-46
2021/08/16 04:48:06;;;;;;;5.65;4.88;;;;;;;;;;5082884;28;20226;-46
2021/08/16 04:50:31;;;;;;;4.75;4.30;;;;;;;;;;5075131;28;20198;-46
2021/08/16 04:52:57;;;;;;;5.32;4.43;;;;;;;;;;5092850;28;20190;-46
2021/08/16 04:55:23;;;;;;;5.28;4.60;;;;;;;;;;5095148;28;20166;-46
2021/08/16 04:57:49;;;;;;;5.07;4.22;;;;;;;;;;5091130;28;20276;-46
2021/08/16 05:00:16;;;;;;;5.00;4.47;;;;;;;;;;5089237;28;20197;-46
2021/08/16 05:02:42;;;;;;;5.60;4.80;;;;;;;;;;5080720;28;20198;-47
2021/08/16 05:05:10;;;;;;;5.10;4.60;;;;;;;;;;5094089;28;20224;-46
2021/08/16 05:07:38;;;;;;;5.35;4.70;;;;;;;;;;5085177;28;20218;-46
2021/08/16 05:10:07;;;;;;;5.95;5.10;;;;;;;;;;5094776;28;20253;-46
2021/08/16 05:12:33;;;;;;;6.78;5.10;;;;;;;;;;5079765;28;20175;-46
2021/08/16 05:14:59;;;;;;;8.38;5.00;;;;;;;;;;5075756;28;20183;-46
2021/08/16 05:17:25;;;;;;;5.85;4.93;;;;;;;;;;5090056;28;20189;-47
2021/08/16 05:19:51;;;;;;;7.75;5.57;;;;;;;;;;5094777;28;20473;-47
2021/08/16 05:22:17;;;;;;;7.28;5.78;;;;;;;;;;5075994;28;20247;-46
2021/08/16 05:24:43;;;;;;;7.13;5.70;;;;;;;;;;5089571;28;20174;-46
2021/08/16 05:27:09;;;;;;;9.43;6.03;;;;;;;;;;5092500;28;20181;-46
2021/08/16 05:29:35;;;;;;;10.88;6.03;;;;;;;;;;5094677;28;20480;-46
2021/08/16 05:32:01;;;;;;;8.27;6.00;;;;;;;;;;5059326;28;20180;-46
2021/08/16 05:34:27;;;;;;;9.95;6.25;;;;;;;;;;5085606;28;20167;-46
2021/08/16 05:36:53;;;;;;;6.85;5.65;;;;;;;;;;5084358;28;20201;-47
2021/08/16 05:39:19;;;;;;;6.50;5.80;;;;;;;;;;5082963;28;20177;-47
2021/08/16 05:41:45;;;;;;;6.82;5.75;;;;;;;;;;5087412;28;20623;-47
2021/08/16 05:44:12;;;;;;;7.53;6.30;;;;;;;;;;5074510;28;20525;-47
2021/08/16 05:46:38;;;;;;;8.02;5.60;;;;;;;;;;5078054;28;20477;-47
2021/08/16 05:49:05;;;;;;;8.00;6.57;;;;;;;;;;5093715;28;20226;-46
2021/08/16 05:51:31;;;;;;;6.95;5.45;;;;;;;;;;5092910;28;20661;-47
2021/08/16 05:53:57;;;;;;;7.68;5.90;;;;;;;;;;5060855;28;20259;-46
2021/08/16 05:56:23;;;;;;;13.07;5.80;;;;;;;;;;5077611;28;20562;-46
2021/08/16 05:58:49;;;;;;;8.88;5.82;;;;;;;;;;5077837;28;20201;-47
2021/08/16 06:01:15;;;;;;;6.07;5.03;;;;;;;;;;5078328;28;20504;-47
2021/08/16 06:03:41;;;;;;;9.13;5.90;;;;;;;;;;5077758;28;20178;-47
2021/08/16 06:06:06;;;;;;;5.32;4.82;;;;;;;;;;5091278;28;20202;-46
2021/08/16 06:08:32;;;;;;;6.05;5.07;;;;;;;;;;5095712;28;20541;-47
2021/08/16 06:10:59;;;;;;;7.38;4.80;;;;;;;;;;5086949;28;20302;-46
2021/08/16 06:13:25;;;;;;;8.55;5.22;;;;;;;;;;5083442;28;20182;-47
2021/08/16 06:15:51;;;;;;;7.82;4.88;;;;;;;;;;5080834;28;20197;-47
2021/08/16 06:18:17;;;;;;;6.50;4.93;;;;;;;;;;5096361;28;20182;-47
2021/08/16 06:20:43;;;;;;;7.72;5.05;;;;;;;;;;5097242;28;20191;-46
2021/08/16 06:23:09;;;;;;;7.97;4.60;;;;;;;;;;5086112;28;20179;-47
2021/08/16 06:25:35;;;;;;;6.30;4.88;;;;;;;;;;5084845;28;20630;-47
2021/08/16 06:28:01;;;;;;;4.90;4.47;;;;;;;;;;5097253;28;20192;-47
2021/08/16 06:30:27;;;;;;;5.15;4.32;;;;;;;;;;5086985;28;20174;-47
2021/08/16 06:32:53;;;;;;;9.55;4.70;;;;;;;;;;5090677;28;20181;-47
2021/08/16 06:35:19;;;;;;;4.90;4.10;;;;;;;;;;5088491;28;20182;-47
2021/08/16 06:37:46;;;;;;;6.40;4.90;;;;;;;;;;5095794;28;20185;-47
2021/08/16 06:40:12;;;;;;;7.43;4.55;;;;;;;;;;5085076;28;20662;-47
2021/08/16 06:42:38;;;;;;;8.00;4.80;;;;;;;;;;5083061;28;20604;-47
2021/08/16 06:45:05;;;;;;;6.65;4.75;;;;;;;;;;5079457;28;20198;-47
2021/08/16 06:47:31;;;;;;;7.78;5.10;;;;;;;;;;5092243;28;20226;-46
2021/08/16 06:49:57;;;;;;;7.25;6.03;;;;;;;;;;5095006;28;20289;-46
2021/08/16 06:52:24;;;;;;;7.10;5.60;;;;;;;;;;5085996;28;20274;-46
2021/08/16 06:54:50;;;;;;;7.65;5.95;;;;;;;;;;5092598;28;20174;-46
2021/08/16 06:57:16;;;;;;;6.25;5.65;;;;;;;;;;5080032;28;20178;-46
2021/08/16 06:59:42;;;;;;;9.27;5.63;;;;;;;;;;5079803;28;20213;-47
2021/08/16 07:02:09;;;;;;;6.55;5.60;;;;;;;;;;5091031;28;20573;-46
2021/08/16 07:04:35;;;;;;;6.32;5.47;;;;;;;;;;5077474;28;20211;-47
2021/08/16 07:07:02;;;;;;;8.20;6.00;;;;;;;;;;5075790;28;20209;-47
2021/08/16 07:09:28;;;;;;;10.23;6.35;;;;;;;;;;5083269;28;20177;-46
2021/08/16 07:11:55;;;;;;;9.88;5.93;;;;;;;;;;5082624;28;20186;-46
2021/08/16 07:14:21;;;;;;;8.93;6.15;;;;;;;;;;5091593;28;20170;-45
2021/08/16 07:16:47;;;;;;;8.20;6.35;;;;;;;;;;5077350;28;20178;-45
2021/08/16 07:19:13;;;;;;;8.27;6.00;;;;;;;;;;5086148;28;20265;-45
2021/08/16 07:21:39;;;;;;;9.43;6.80;;;;;;;;;;5087093;28;20572;-45
2021/08/16 07:24:05;;;;;;;7.75;7.05;;;;;;;;;;5082560;28;20187;-45
2021/08/16 07:26:32;;;;;;;9.38;6.45;;;;;;;;;;5085732;28;20201;-45
2021/08/16 07:28:57;;;;;;;7.35;6.63;;;;;;;;;;5077357;28;20181;-46
2021/08/16 07:31:24;;;;;;;9.88;7.10;;;;;;;;;;5094760;28;20174;-46
2021/08/16 07:33:51;;;;;;;9.82;7.25;;;;;;;;;;5094296;28;20224;-46
2021/08/16 07:36:17;;;;;;;9.70;6.88;;;;;;;;;;5076009;28;20162;-46
2021/08/16 07:38:43;;;;;;;9.90;7.68;;;;;;;;;;5080755;28;20189;-46
2021/08/16 07:41:09;;;;;;;8.48;7.00;;;;;;;;;;5087314;28;20178;-46
2021/08/16 07:43:35;;;;;;;8.65;7.10;;;;;;;;;;5085749;28;20257;-46
2021/08/16 07:46:03;;;;;;;8.73;7.50;;;;;;;;;;5091171;28;20250;-46
2021/08/16 07:48:29;;;;;;;8.25;7.38;;;;;;;;;;5081879;28;20177;-46
2021/08/16 07:50:55;;;;;;;8.45;7.50;;;;;;;;;;5082182;28;20188;-46
2021/08/16 07:53:21;;;;;;;8.75;7.60;;;;;;;;;;5079379;28;20175;-46
2021/08/16 07:55:47;;;;;;;9.48;8.25;;;;;;;;;;5083425;28;20189;-46
2021/08/16 07:58:13;;;;;;;8.55;7.75;;;;;;;;;;5093691;28;20569;-46
2021/08/16 08:00:39;;;;;;;9.48;7.50;;;;;;;;;;5086154;28;20205;-46
2021/08/16 08:03:06;;;;;;;10.27;7.65;;;;;;;;;;5075649;28;20190;-46
2021/08/16 08:05:32;;;;;;;10.75;7.43;;;;;;;;;;5076076;28;20195;-46
2021/08/16 08:07:59;;;;;;;9.93;7.50;;;;;;;;;;5093996;28;20208;-46
2021/08/16 08:10:25;;;;;;;7.35;6.65;;;;;;;;;;5089191;28;20181;-46
2021/08/16 08:12:51;;;;;;;9.93;6.55;;;;;;;;;;5080228;28;20184;-46
2021/08/16 08:15:18;;;;;;;10.18;6.35;;;;;;;;;;5084805;28;20243;-46
2021/08/16 08:17:43;;;;;;;8.52;6.32;;;;;;;;;;5092192;28;20213;-46
2021/08/16 08:20:10;;;;;;;10.63;6.18;;;;;;;;;;5083247;28;20269;-46
2021/08/16 08:22:36;;;;;;;9.25;6.07;;;;;;;;;;5093033;28;20182;-46
2021/08/16 08:25:03;;;;;;;9.20;5.57;;;;;;;;;;5083555;28;20237;-46
2021/08/16 08:27:29;;;;;;;10.98;5.75;;;;;;;;;;5074425;28;20179;-46
2021/08/16 08:29:55;;;;;;;7.93;5.65;;;;;;;;;;5079805;28;20181;-46
2021/08/16 08:32:21;;;;;;;6.93;5.88;;;;;;;;;;5095237;28;20483;-46
2021/08/16 08:34:47;;;;;;;6.13;5.50;;;;;;;;;;5094667;28;20442;-46
2021/08/16 08:37:15;;;;;;;7.13;5.97;;;;;;;;;;5094863;28;20172;-46
2021/08/16 08:39:42;;;;;;;8.18;5.70;;;;;;;;;;5087011;28;20170;-46
2021/08/16 08:42:11;;;;;;;8.73;5.90;;;;;;;;;;5079257;28;20192;-46
2021/08/16 08:44:37;;;;;;;8.27;5.50;;;;;;;;;;5079719;28;20192;-46
2021/08/16 08:47:03;;;;;;;5.97;4.97;;;;;;;;;;5074030;28;20593;-46
2021/08/16 08:49:29;;;;;;;10.07;5.40;;;;;;;;;;5074670;28;20257;-46
2021/08/16 08:51:55;;;;;;;9.82;5.53;;;;;;;;;;5074893;28;20254;-46
2021/08/16 08:54:22;;;;;;;8.68;5.07;;;;;;;;;;5079282;28;20174;-46
2021/08/16 08:56:49;;;;;;;10.18;5.30;;;;;;;;;;5093563;28;20184;-46
2021/08/16 08:59:15;;;;;;;5.90;4.55;;;;;;;;;;5094008;28;20253;-46
2021/08/16 09:01:54;;;;;;;7.32;4.80;;;;;;;;;;5075083;28;20182;-46
2021/08/16 09:04:20;;;;;;;7.78;5.20;;;;;;;;;;5074690;28;20192;-46
2021/08/16 09:06:47;;;;;;;6.05;4.82;;;;;;;;;;5074594;28;20198;-46
2021/08/16 09:09:13;;;;;;;7.00;4.38;;;;;;;;;;5079518;28;20542;-46
2021/08/16 09:11:42;;;;;;;10.52;5.28;;;;;;;;;;5082102;28;20196;-46
2021/08/16 09:14:09;;;;;;;6.05;4.50;;;;;;;;;;5075587;28;20557;-46
2021/08/16 09:16:36;;;;;;;6.72;4.80;;;;;;;;;;5085720;28;20178;-46
2021/08/16 09:19:18;;;;;;;5.80;4.75;;;;;;;;;;5073966;28;20170;-46
2021/08/16 09:22:01;;;;;;;8.50;4.50;;;;;;;;;;5088668;28;20182;-46
2021/08/16 09:24:31;;;;;;;6.30;4.75;;;;;;;;;;5087738;28;20176;-46
2021/08/16 09:27:03;;;;;;;12.70;5.10;;;;;;;;;;5069705;28;20197;-46
2021/08/16 09:29:29;;;;;;;6.60;4.80;;;;;;;;;;5093255;28;20193;-46
2021/08/16 09:32:01;;;;;;;7.75;4.43;;;;;;;;;;5074239;28;20177;-46
2021/08/16 09:34:31;;;;;;;6.35;4.57;;;;;;;;;;5074280;28;20186;-46
2021/08/16 09:37:01;;;;;;;11.00;5.07;;;;;;;;;;5073807;28;20166;-46
2021/08/16 09:39:28;;;;;;;7.35;4.45;;;;;;;;;;5077835;28;20171;-46
2021/08/16 09:41:58;;;;;;;8.60;5.00;;;;;;;;;;5079534;28;20561;-46
2021/08/16 09:44:25;;;;;;;5.63;4.25;;;;;;;;;;5056789;28;20261;-46
2021/08/16 09:47:00;;;;;;;8.30;4.68;;;;;;;;;;5076677;28;20197;-46
2021/08/16 09:49:26;;;;;;;7.88;4.53;;;;;;;;;;5093918;28;20583;-46
2021/08/16 09:52:01;;;;;;;6.85;4.78;;;;;;;;;;5093932;28;20169;-46
2021/08/16 09:54:27;;;;;;;10.10;4.72;;;;;;;;;;5088947;28;20181;-46
2021/08/16 09:56:53;;;;;;;5.43;4.00;;;;;;;;;;5079976;28;20239;-46
2021/08/16 09:59:19;;;;;;;5.40;4.18;;;;;;;;;;5072846;28;20519;-46
2021/08/16 10:01:45;;;;;;;5.45;3.70;;;;;;;;;;5073112;28;20558;-46
2021/08/16 10:04:11;;;;;;;6.65;4.40;;;;;;;;;;5077331;28;20437;-47
2021/08/16 10:06:38;;;;;;;8.95;4.25;;;;;;;;;;5092963;28;20585;-46
2021/08/16 10:09:05;;;;;;;7.32;4.57;;;;;;;;;;5071516;28;20190;-46
2021/08/16 10:11:31;;;;;;;8.07;4.40;;;;;;;;;;5081710;28;20202;-46
2021/08/16 10:13:57;;;;;;;5.75;4.38;;;;;;;;;;5073863;28;20178;-46
2021/08/16 10:16:24;;;;;;;4.93;3.95;;;;;;;;;;5091376;28;20174;-46
2021/08/16 10:19:08;;;;;;;10.25;4.63;;;;;;;;;;5093257;28;20176;-46
2021/08/16 10:21:37;;;;;;;5.75;3.85;;;;;;;;;;5094026;28;20177;-46
2021/08/16 10:24:03;;;;;;;5.22;4.05;;;;;;;;;;5085056;28;20473;-46
2021/08/16 10:26:33;;;;;;;6.22;4.50;;;;;;;;;;5079111;28;20207;-46
2021/08/16 10:29:01;;;;;;;7.95;5.07;;;;;;;;;;5078161;28;20205;-46
2021/08/16 10:31:28;;;;;;;7.38;4.43;;;;;;;;;;5085649;28;20272;-46
2021/08/16 10:33:54;;;;;;;5.07;3.53;;;;;;;;;;5089319;28;20178;-46
2021/08/16 10:36:20;;;;;;;8.23;4.38;;;;;;;;;;5080761;28;20236;-46
2021/08/16 10:38:47;;;;;;;7.75;3.75;;;;;;;;;;5077865;28;20174;-46
2021/08/16 10:41:23;;;;;;;6.82;4.18;;;;;;;;;;5088466;28;20187;-46
2021/08/16 10:43:48;;;;;;;5.95;3.17;;;;;;;;;;5076389;28;20500;-46
2021/08/16 10:46:21;;;;;;;4.88;3.35;;;;;;;;;;5091779;28;20208;-46
2021/08/16 10:48:47;;;;;;;6.80;3.85;;;;;;;;;;5096687;28;20554;-46
2021/08/16 10:51:14;;;;;;;5.63;3.63;;;;;;;;;;5096970;28;20206;-46
2021/08/16 10:53:53;;;;;;;6.53;3.65;;;;;;;;;;5085510;28;20185;-46
2021/08/16 10:56:20;;;;;;;8.50;3.25;;;;;;;;;;5085493;28;20568;-46
2021/08/16 10:58:47;;;;;;;7.38;3.50;;;;;;;;;;5096455;28;20174;-46
2021/08/16 11:01:14;;;;;;;5.68;3.33;;;;;;;;;;5081776;28;20175;-46
2021/08/16 11:03:40;;;;;;;3.97;3.10;;;;;;;;;;5076826;28;20572;-46
2021/08/16 11:06:06;;;;;;;5.88;2.92;;;;;;;;;;5086568;28;20241;-46
2021/08/16 11:08:32;;;;;;;7.30;3.50;;;;;;;;;;5094703;28;20175;-46
2021/08/16 11:11:05;;;;;;;5.93;3.10;;;;;;;;;;5084517;28;20289;-46
2021/08/16 11:13:34;;;;;;;12.63;3.40;;;;;;;;;;5096896;28;20174;-46
2021/08/16 11:16:05;;;;;;;9.25;3.20;;;;;;;;;;5084432;28;20257;-46
2021/08/16 11:18:30;;;;;;;5.85;3.00;;;;;;;;;;5077804;28;20183;-46
2021/08/16 11:20:58;;;;;;;3.47;2.78;;;;;;;;;;5076807;28;20781;-46
2021/08/16 11:23:24;;;;;;;7.30;3.03;;;;;;;;;;5076638;28;20236;-46
2021/08/16 11:25:51;;;;;;;8.63;3.45;;;;;;;;;;5088577;28;20534;-46
2021/08/16 11:28:22;;;;;;;4.63;2.83;;;;;;;;;;5094755;28;20177;-46
2021/08/16 11:30:49;;;;;;;6.25;3.10;;;;;;;;;;5089269;28;20228;-46
2021/08/16 11:33:26;;;;;;;4.07;2.75;;;;;;;;;;5094908;28;20487;-46
2021/08/16 11:36:06;;;;;;;5.35;3.40;;;;;;;;;;5096290;28;20169;-46
2021/08/16 11:38:32;;;;;;;6.05;2.58;;;;;;;;;;5078377;28;20189;-46
2021/08/16 11:41:09;;;;;;;5.80;2.70;;;;;;;;;;5084536;28;20491;-46
2021/08/16 11:43:35;;;;;;;5.13;2.95;;;;;;;;;;5077331;28;20243;-46
2021/08/16 11:46:11;;;;;;;3.47;3.08;;;;;;;;;;5087824;28;20209;-46
2021/08/16 11:48:37;;;;;;;6.88;3.10;;;;;;;;;;5094339;28;20265;-46
2021/08/16 11:51:03;;;;;;;7.00;3.22;;;;;;;;;;5082952;28;20261;-46
2021/08/16 11:53:42;;;;;;;6.93;3.60;;;;;;;;;;5076268;28;20178;-46
2021/08/16 11:56:08;;;;;;;11.30;4.00;;;;;;;;;;5057609;28;20197;-46
2021/08/16 11:58:37;;;;;;;8.00;3.50;;;;;;;;;;5074522;28;20538;-46
2021/08/16 12:01:03;;;;;;;4.70;2.80;;;;;;;;;;5074895;28;20178;-46
2021/08/16 12:03:30;;;;;;;6.38;2.70;;;;;;;;;;5075879;28;20264;-46
2021/08/16 12:05:56;;;;;;;3.80;2.38;;;;;;;;;;5087313;28;20209;-46
2021/08/16 12:08:22;;;;;;;3.55;2.22;;;;;;;;;;5095633;28;20162;-46
2021/08/16 12:10:48;;;;;;;5.68;2.67;;;;;;;;;;5096134;28;20726;-46
2021/08/16 12:13:14;;;;;;;5.32;2.40;;;;;;;;;;5095770;28;20276;-46
2021/08/16 12:15:43;;;;;;;8.60;2.55;;;;;;;;;;5091325;28;20174;-46
2021/08/16 12:18:09;;;;;;;4.18;2.05;;;;;;;;;;5086754;28;20188;-46
2021/08/16 12:20:40;;;;;;;6.03;2.17;;;;;;;;;;5095877;28;20188;-46
2021/08/16 12:23:06;;;;;;;5.35;1.92;;;;;;;;;;5076568;28;20214;-46
2021/08/16 12:25:32;;;;;;;3.60;2.10;;;;;;;;;;5075362;28;20198;-46
2021/08/16 12:27:59;;;;;;;3.80;1.70;;;;;;;;;;5074432;28;20174;-46
2021/08/16 12:30:43;;;;;;;3.83;2.05;;;;;;;;;;5075454;28;20174;-46
2021/08/16 12:33:10;;;;;;;4.35;2.00;;;;;;;;;;5076037;28;20182;-46
2021/08/16 12:35:36;;;;;;;3.67;1.75;;;;;;;;;;5091349;28;20182;-46
2021/08/16 12:38:03;;;;;;;4.05;1.70;;;;;;;;;;5060084;28;20438;-46
2021/08/16 12:40:29;;;;;;;2.95;1.65;;;;;;;;;;5075070;28;20455;-46
2021/08/16 12:42:55;;;;;;;2.95;1.70;;;;;;;;;;5091245;28;20201;-46
2021/08/16 12:45:21;;;;;;;5.72;1.95;;;;;;;;;;5095423;28;20186;-46
2021/08/16 12:47:57;;;;;;;5.90;1.80;;;;;;;;;;5088065;28;20253;-46
2021/08/16 12:50:24;;;;;;;3.45;1.42;;;;;;;;;;5080575;28;20166;-46
2021/08/16 12:52:50;;;;;;;2.70;1.70;;;;;;;;;;5076837;28;20212;-46
2021/08/16 12:55:16;;;;;;;2.40;1.50;;;;;;;;;;5080521;28;20205;-46
2021/08/16 12:57:42;;;;;;;3.22;1.50;;;;;;;;;;5087974;28;20182;-46
2021/08/16 13:00:08;;;;;;;5.13;1.55;;;;;;;;;;5072438;28;20171;-46
2021/08/16 13:02:34;;;;;;;3.35;1.40;;;;;;;;;;5078649;28;20272;-46
2021/08/16 13:05:00;;;;;;;3.72;1.60;;;;;;;;;;5094971;28;20504;-46
2021/08/16 13:07:26;;;;;;;2.85;2.00;;;;;;;;;;5089976;28;20177;-46
2021/08/16 13:09:52;;;;;;;1.73;1.23;;;;;;;;;;5074261;28;20243;-46
2021/08/16 13:12:19;;;;;;;4.70;1.67;;;;;;;;;;5094748;28;20170;-46
2021/08/16 13:14:45;;;;;;;2.05;1.30;;;;;;;;;;5074831;28;20193;-46
2021/08/16 13:17:12;;;;;;;5.60;1.48;;;;;;;;;;5091452;28;20177;-46
2021/08/16 13:19:38;;;;;;;3.17;1.63;;;;;;;;;;5084110;28;20187;-46
2021/08/16 13:22:05;;;;;;;4.82;1.70;;;;;;;;;;5079311;28;20181;-46
2021/08/16 13:24:31;;;;;;;2.60;1.70;;;;;;;;;;5085109;28;20264;-46
2021/08/16 13:26:57;;;;;;;2.47;1.48;;;;;;;;;;5085748;28;20210;-46
2021/08/16 13:29:24;;;;;;;6.35;1.65;;;;;;;;;;5091706;28;20260;-46
2021/08/16 13:31:50;;;;;;;8.73;1.83;;;;;;;;;;5093896;28;20252;-46
2021/08/16 13:34:19;;;;;;;4.57;1.50;;;;;;;;;;5094385;28;20181;-46
2021/08/16 13:36:45;;;;;;;3.00;1.95;;;;;;;;;;5091227;28;20181;-46
2021/08/16 13:39:11;;;;;;;4.93;1.80;;;;;;;;;;5085063;28;20186;-46
2021/08/16 13:41:37;;;;;;;5.40;1.75;;;;;;;;;;5075553;28;20253;-46
2021/08/16 13:44:03;;;;;;;2.08;1.67;;;;;;;;;;5086733;28;20456;-46
2021/08/16 13:46:29;;;;;;;6.60;1.73;;;;;;;;;;5094797;28;20221;-46
2021/08/16 13:48:55;;;;;;;4.55;1.75;;;;;;;;;;5074962;28;20170;-46
2021/08/16 13:51:21;;;;;;;3.10;1.55;;;;;;;;;;5082471;28;20196;-46
2021/08/16 13:53:48;;;;;;;4.43;1.80;;;;;;;;;;5086056;28;20192;-46
2021/08/16 13:56:14;;;;;;;3.88;1.48;;;;;;;;;;5074383;28;20719;-46
2021/08/16 13:58:40;;;;;;;5.13;1.40;;;;;;;;;;5084758;28;20269;-46
2021/08/16 14:01:06;;;;;;;2.30;1.30;;;;;;;;;;5094107;28;20174;-46
2021/08/16 14:03:33;;;;;;;6.82;1.60;;;;;;;;;;5093403;28;20197;-46
2021/08/16 14:05:59;;;;;;;4.68;1.73;;;;;;;;;;5072216;28;20256;-46
2021/08/16 14:08:25;;;;;;;2.83;1.33;;;;;;;;;;5084671;28;20182;-46
2021/08/16 14:10:52;;;;;;;4.00;1.40;;;;;;;;;;5092299;28;20484;-46
2021/08/16 14:13:18;;;;;;;3.90;1.30;;;;;;;;;;5090155;28;20498;-46
2021/08/16 14:15:45;;;;;;;1.58;1.35;;;;;;;;;;5078064;28;20489;-46
2021/08/16 14:18:11;;;;;;;2.75;1.50;;;;;;;;;;5078385;28;20186;-46
2021/08/16 14:20:37;;;;;;;4.45;1.50;;;;;;;;;;5078957;28;20178;-46
2021/08/16 14:23:04;;;;;;;3.22;1.35;;;;;;;;;;5082077;28;20579;-46
2021/08/16 14:25:30;;;;;;;2.45;1.40;;;;;;;;;;5093335;28;21210;-46
2021/08/16 14:27:56;;;;;;;2.08;1.20;;;;;;;;;;5078463;28;20572;-46
2021/08/16 14:30:22;;;;;;;2.42;1.48;;;;;;;;;;5086719;28;20232;-46
2021/08/16 14:32:48;;;;;;;2.35;1.55;;;;;;;;;;5082175;28;20186;-46
2021/08/16 14:35:14;;;;;;;3.38;1.30;;;;;;;;;;5088747;28;20174;-46
2021/08/16 14:37:40;;;;;;;1.52;1.15;;;;;;;;;;5091571;28;20541;-46
2021/08/16 14:40:06;;;;;;;3.08;1.38;;;;;;;;;;5083673;28;20179;-45
2021/08/16 14:42:32;;;;;;;5.50;1.77;;;;;;;;;;5091866;28;20258;-46